Time;durP1;ratioP1;P1;durP2;ratioP2;P2;SDS_P1;SDS_P2;PMS_P1;PMS_P2;Temp;Humidity;BMP_temperature;BMP_pressure;BME280_temperature;BME280_humidity;BME280_pressure;Samples;Min_cycle;Max_cycle;Signal;HPM_P1;HPM_P2
2022/11/04 00:01:23;;;;;;;40.80;23.40;;;;;;;13.90;100.00;100122.75;5040813;28;20463;-86
2022/11/04 00:03:48;;;;;;;40.97;22.83;;;;;;;13.90;100.00;100120.13;5027921;28;20029;-89
2022/11/04 00:06:14;;;;;;;43.92;22.20;;;;;;;13.90;100.00;100112.25;5055901;28;20535;-86
2022/11/04 00:08:39;;;;;;;35.42;22.50;;;;;;;13.88;100.00;100109.00;5049989;28;20546;-85
2022/11/04 00:13:50;;;;;;;41.13;23.17;;;;;;;13.86;100.00;100103.13;5059739;28;20105;-87
2022/11/04 00:19:00;;;;;;;35.83;21.92;;;;;;;13.83;100.00;100095.63;5044928;28;20068;-85
2022/11/04 00:29:41;;;;;;;33.60;21.52;;;;;;;13.78;100.00;100056.03;5048533;28;20043;-90
2022/11/04 00:34:50;;;;;;;27.60;19.58;;;;;;;13.78;100.00;100045.56;5042621;28;20116;-88
2022/11/04 00:37:16;;;;;;;30.45;20.17;;;;;;;13.77;100.00;100042.13;5030547;28;20060;-84
2022/11/04 00:39:41;;;;;;;31.45;19.08;;;;;;;13.77;100.00;100029.06;5054542;28;20025;-82
2022/11/04 00:42:07;;;;;;;27.27;17.70;;;;;;;13.78;100.00;100029.88;5046556;28;20021;-86
2022/11/04 00:44:32;;;;;;;26.63;17.65;;;;;;;13.79;100.00;100026.25;5029187;28;20070;-88
2022/11/04 00:46:58;;;;;;;21.98;16.50;;;;;;;13.78;100.00;100024.63;5025488;28;20500;-89
2022/11/04 00:49:23;;;;;;;24.10;16.52;;;;;;;13.80;100.00;100022.66;5042508;28;20507;-87
2022/11/04 00:51:49;;;;;;;42.28;19.73;;;;;;;13.87;100.00;100021.78;5047292;28;20028;-86
2022/11/04 00:54:14;;;;;;;40.75;19.73;;;;;;;13.89;100.00;100021.59;5029247;28;20136;-89
2022/11/04 00:56:40;;;;;;;50.97;20.52;;;;;;;13.91;100.00;100009.16;5034392;28;20044;-85
2022/11/04 00:59:06;;;;;;;27.63;18.83;;;;;;;13.92;100.00;99995.88;5048891;28;20036;-88
2022/11/04 01:01:31;;;;;;;33.78;19.40;;;;;;;13.91;100.00;99998.66;5044107;28;20029;-87
2022/11/04 01:03:57;;;;;;;31.77;18.65;;;;;;;13.85;100.00;99989.72;5046634;28;20060;-85
2022/11/04 01:06:24;;;;;;;36.63;20.33;;;;;;;13.88;100.00;99988.53;5056235;28;20466;-86
2022/11/04 01:08:58;;;;;;;33.95;20.00;;;;;;;13.92;100.00;99984.59;5047639;28;20108;-88
2022/11/04 01:11:24;;;;;;;47.58;22.27;;;;;;;13.95;100.00;99974.56;5032443;28;20075;-85
2022/11/04 01:13:50;;;;;;;64.95;21.50;;;;;;;13.95;100.00;99973.75;5057578;28;20078;-84
2022/11/04 01:16:16;;;;;;;47.47;20.98;;;;;;;13.92;100.00;99967.06;5054217;28;20413;-86
2022/11/04 01:18:42;;;;;;;54.25;22.13;;;;;;;13.94;100.00;99967.69;5046188;28;20024;-90
2022/11/04 01:21:10;;;;;;;44.42;21.27;;;;;;;13.96;100.00;99962.28;5046365;28;20314;-84
2022/11/04 01:23:35;;;;;;;52.72;24.38;;;;;;;13.98;100.00;99965.53;5027527;28;20523;-86
2022/11/04 01:26:05;;;;;;;52.25;24.08;;;;;;;13.98;100.00;99956.88;5052839;28;20488;-89
2022/11/04 01:28:30;;;;;;;75.68;27.02;;;;;;;13.96;100.00;99954.44;5051904;28;20021;-84
2022/11/04 01:30:56;;;;;;;46.05;23.50;;;;;;;13.92;100.00;99964.44;5046342;28;20400;-86
2022/11/04 01:33:21;;;;;;;33.88;21.13;;;;;;;13.92;100.00;99953.16;5025266;28;20053;-85
2022/11/04 01:35:46;;;;;;;36.08;21.55;;;;;;;13.91;100.00;99956.75;5025436;28;20028;-86
2022/11/04 01:38:12;;;;;;;65.97;24.58;;;;;;;13.92;100.00;99946.13;5048990;28;20083;-88
2022/11/04 01:40:39;;;;;;;46.40;22.33;;;;;;;13.90;100.00;99931.56;5022156;28;20183;-90
2022/11/04 01:43:18;;;;;;;47.80;22.85;;;;;;;13.88;100.00;99925.69;5046508;28;20040;-87
2022/11/04 01:45:51;;;;;;;36.65;21.27;;;;;;;13.84;100.00;99919.19;5027332;28;20036;-89
2022/11/04 01:48:21;;;;;;;102.97;26.23;;;;;;;13.84;100.00;99906.91;5043491;28;20155;-88
2022/11/04 01:50:49;;;;;;;35.65;20.15;;;;;;;13.86;100.00;99912.78;5049746;28;20079;-86
2022/11/04 01:53:29;;;;;;;38.60;21.58;;;;;;;13.90;100.00;99902.75;5052712;28;20083;-86
2022/11/04 01:55:57;;;;;;;42.10;22.88;;;;;;;13.91;100.00;99896.53;5045548;28;20189;-87
2022/11/04 01:58:27;;;;;;;42.53;21.77;;;;;;;13.87;100.00;99893.47;5051530;28;20041;-84
2022/11/04 02:00:53;;;;;;;33.75;20.80;;;;;;;13.90;100.00;99880.00;5051309;28;20029;-88
2022/11/04 02:03:33;;;;;;;38.72;21.48;;;;;;;13.86;100.00;99876.13;5044525;28;20044;-88
2022/11/04 02:05:59;;;;;;;31.63;19.73;;;;;;;13.82;100.00;99861.75;5021512;28;20087;-87
2022/11/04 02:08:25;;;;;;;32.35;18.77;;;;;;;13.83;100.00;99845.06;5052445;28;20064;-88
2022/11/04 02:10:57;;;;;;;24.25;15.15;;;;;;;13.83;100.00;99833.78;5024897;28;20057;-84
2022/11/04 02:13:22;;;;;;;38.03;17.73;;;;;;;13.85;100.00;99840.47;5049428;28;20113;-85
2022/11/04 02:15:59;;;;;;;24.60;15.85;;;;;;;13.84;100.00;99838.81;5046536;28;20132;-87
2022/11/04 02:18:40;;;;;;;23.08;15.60;;;;;;;13.86;100.00;99829.00;5029648;28;20067;-84
2022/11/04 02:21:42;;;;;;;24.38;15.82;;;;;;;13.87;100.00;99830.63;5042504;28;20565;-84
2022/11/04 02:24:14;;;;;;;25.02;15.10;;;;;;;13.90;100.00;99813.72;5011384;28;20452;-89
2022/11/04 02:26:57;;;;;;;23.00;14.65;;;;;;;13.88;100.00;99816.53;5029233;28;20146;-87
2022/11/04 02:29:45;;;;;;;20.05;13.93;;;;;;;13.90;100.00;99826.81;5025936;28;20029;-91
2022/11/04 02:32:24;;;;;;;19.85;14.50;;;;;;;13.93;100.00;99829.09;5020235;28;20029;-89
2022/11/04 02:35:34;;;;;;;17.98;11.82;;;;;;;13.92;100.00;99812.56;5012698;28;20039;-90
2022/11/04 02:38:06;;;;;;;18.13;12.30;;;;;;;13.96;100.00;99818.25;5001348;28;20045;-86
2022/11/04 02:40:55;;;;;;;17.05;11.13;;;;;;;13.96;100.00;99818.25;5024505;28;20108;-84
2022/11/04 02:43:58;;;;;;;15.07;11.57;;;;;;;13.98;100.00;99808.41;5024901;28;20037;-86
2022/11/04 02:46:37;;;;;;;19.20;10.27;;;;;;;13.99;100.00;99811.84;5038967;28;20037;-85
2022/11/04 02:49:15;;;;;;;20.52;10.57;;;;;;;14.00;100.00;99808.22;5030125;28;20029;-84
2022/11/04 02:51:52;;;;;;;15.93;9.90;;;;;;;13.98;100.00;99810.22;5010456;28;20588;-88
2022/11/04 02:54:26;;;;;;;12.73;9.38;;;;;;;14.01;100.00;99802.00;5030997;28;20033;-88
2022/11/04 02:56:55;;;;;;;18.35;9.73;;;;;;;13.99;100.00;99791.69;5012254;28;20497;-87
2022/11/04 02:59:58;;;;;;;13.98;8.93;;;;;;;13.98;100.00;99782.22;5029324;28;20029;-90
2022/11/04 03:02:33;;;;;;;12.05;7.85;;;;;;;13.98;100.00;99782.22;5005992;28;20052;-86
2022/11/04 03:05:02;;;;;;;14.00;8.50;;;;;;;13.99;100.00;99759.44;5012108;28;20152;-84
2022/11/04 03:07:32;;;;;;;13.68;8.45;;;;;;;14.00;100.00;99766.31;5010211;28;20029;-87
2022/11/04 03:10:01;;;;;;;10.45;6.32;;;;;;;14.01;100.00;99779.22;5026869;28;20026;-85
2022/11/04 03:12:38;;;;;;;13.30;7.50;;;;;;;14.02;100.00;99754.66;5038069;28;20048;-85
2022/11/04 03:15:09;;;;;;;17.52;8.98;;;;;;;14.02;100.00;99780.84;5027222;28;20041;-89
2022/11/04 03:17:53;;;;;;;14.32;6.38;;;;;;;14.03;100.00;99777.25;5029935;28;20449;-84
2022/11/04 03:20:26;;;;;;;13.52;7.38;;;;;;;14.05;100.00;99779.69;5033169;28;20033;-87
2022/11/04 03:22:58;;;;;;;13.43;6.95;;;;;;;14.05;100.00;99774.44;5044654;28;20040;-87
2022/11/04 03:25:37;;;;;;;16.77;7.13;;;;;;;14.06;100.00;99776.06;5054933;28;20044;-88
2022/11/04 03:28:19;;;;;;;11.25;6.68;;;;;;;14.06;100.00;99776.88;5053119;28;20127;-81
2022/11/04 03:30:50;;;;;;;15.35;6.45;;;;;;;14.07;100.00;99775.88;5038012;28;20534;-90
2022/11/04 03:33:24;;;;;;;9.57;5.55;;;;;;;14.07;100.00;99778.50;5057363;28;20073;-85
2022/11/04 03:35:50;;;;;;;10.50;5.72;;;;;;;14.07;100.00;99769.81;5048459;28;20028;-91
2022/11/04 03:38:15;;;;;;;7.70;5.18;;;;;;;14.05;100.00;99770.00;5045730;28;20408;-85
2022/11/04 03:40:41;;;;;;;7.15;4.63;;;;;;;14.03;100.00;99758.09;5035750;28;20028;-84
2022/11/04 03:43:18;;;;;;;9.23;5.03;;;;;;;14.03;100.00;99761.53;5054971;28;20033;-87
2022/11/04 03:45:44;;;;;;;10.27;4.97;;;;;;;14.02;100.00;99757.28;5055182;28;20093;-87
2022/11/04 03:48:10;;;;;;;7.65;5.10;;;;;;;14.02;100.00;99753.84;5050940;28;20048;-86
2022/11/04 03:50:46;;;;;;;10.80;5.47;;;;;;;14.03;100.00;99751.03;5037632;28;20119;-84
2022/11/04 03:53:15;;;;;;;9.38;6.07;;;;;;;14.04;100.00;99746.63;5052991;28;20029;-85
2022/11/04 03:56:08;;;;;;;8.82;6.35;;;;;;;14.03;100.00;99737.94;5056287;28;20021;-85
2022/11/04 03:58:59;;;;;;;9.20;6.05;;;;;;;14.06;100.00;99734.97;5056231;28;20048;-83
2022/11/04 04:01:51;;;;;;;9.48;5.82;;;;;;;14.05;100.00;99724.66;5044349;28;20040;-87
2022/11/04 04:04:29;;;;;;;15.15;6.38;;;;;;;14.05;100.00;99698.47;5056797;28;20036;-82
2022/11/04 04:07:13;;;;;;;10.57;5.50;;;;;;;14.05;100.00;99691.44;5029933;28;20044;-83
2022/11/04 04:09:49;;;;;;;12.27;4.97;;;;;;;14.06;100.00;99697.50;5050272;28;20071;-85
2022/11/04 04:12:33;;;;;;;;;;;;;;;14.00;100.00;99683.31;5041452;28;20036;-86
2022/11/04 04:15:07;;;;;;;10.35;5.20;;;;;;;14.03;100.00;99679.53;5055369;28;20335;-86
2022/11/04 04:17:41;;;;;;;9.88;4.78;;;;;;;14.03;100.00;99676.91;5052869;28;20647;-88
2022/11/04 04:20:18;;;;;;;5.88;3.67;;;;;;;14.00;100.00;99667.59;5025556;28;20028;-84
2022/11/04 04:22:55;;;;;;;12.20;4.72;;;;;;;14.00;100.00;99667.59;5029154;28;20176;-83
2022/11/04 04:28:11;;;;;;;6.70;3.72;;;;;;;13.99;100.00;99647.66;5024255;28;20039;-84
2022/11/04 04:30:38;;;;;;;4.43;3.13;;;;;;;13.96;100.00;99640.16;5034832;28;20035;-84
2022/11/04 04:33:16;;;;;;;5.95;4.22;;;;;;;13.96;100.00;99632.31;5031577;28;20088;-84
2022/11/04 04:35:45;;;;;;;8.93;4.00;;;;;;;13.98;100.00;99627.69;5035450;28;20122;-86
2022/11/04 04:46:43;;;;;;;6.00;3.00;;;;;;;13.93;100.00;99599.44;5025259;28;20409;-88
2022/11/04 04:49:09;;;;;;;8.35;3.00;;;;;;;13.91;100.00;99588.34;5013198;28;20017;-84
2022/11/04 04:51:42;;;;;;;5.53;3.22;;;;;;;13.90;100.00;99588.53;5033867;28;20119;-89
2022/11/04 04:54:07;;;;;;;4.20;2.47;;;;;;;13.89;100.00;99572.00;5010686;28;20021;-86
2022/11/04 04:56:32;;;;;;;3.60;2.60;;;;;;;13.85;100.00;99559.47;5014379;28;20473;-84
2022/11/04 04:58:58;;;;;;;3.72;2.35;;;;;;;13.81;100.00;99540.72;5030079;28;20044;-89
2022/11/04 05:01:23;;;;;;;4.90;2.25;;;;;;;13.79;100.00;99544.53;5031398;28;20040;-87
2022/11/04 05:03:49;;;;;;;5.28;2.63;;;;;;;13.79;100.00;99544.53;5026732;28;20029;-86
2022/11/04 05:06:14;;;;;;;3.78;2.00;;;;;;;13.79;100.00;99536.66;5029469;28;20037;-88
2022/11/04 05:08:39;;;;;;;6.93;2.28;;;;;;;13.77;100.00;99525.56;5001967;28;20045;-86
2022/11/04 05:11:05;;;;;;;5.53;2.47;;;;;;;13.73;100.00;99529.56;5016800;28;20021;-87
2022/11/04 05:13:30;;;;;;;2.92;1.85;;;;;;;13.70;100.00;99519.50;5027203;28;20029;-86
2022/11/04 05:16:01;;;;;;;3.95;1.70;;;;;;;13.73;100.00;99516.47;5008524;28;20470;-84
2022/11/04 05:18:27;;;;;;;4.78;1.98;;;;;;;13.71;100.00;99510.59;5023300;28;20509;-87
2022/11/04 05:20:52;;;;;;;4.20;1.48;;;;;;;13.71;100.00;99506.19;5008900;28;20029;-89
2022/11/04 05:23:17;;;;;;;4.80;1.63;;;;;;;13.72;100.00;99493.91;5044516;28;20045;-90
2022/11/04 05:25:43;;;;;;;4.75;1.40;;;;;;;13.70;100.00;99475.00;5030091;28;20033;-87
2022/11/04 05:28:09;;;;;;;3.40;0.73;;;;;;;13.68;100.00;99496.13;5050881;28;20510;-84
2022/11/04 05:30:34;;;;;;;4.88;1.13;;;;;;;13.69;100.00;99481.22;5044771;28;20029;-87
2022/11/04 05:33:00;;;;;;;2.85;0.93;;;;;;;13.64;100.00;99471.31;5044078;28;20036;-84
2022/11/04 05:35:25;;;;;;;3.90;1.17;;;;;;;13.64;100.00;99460.03;5044990;28;20464;-83
2022/11/04 05:37:51;;;;;;;2.92;0.93;;;;;;;13.65;100.00;99478.16;5043935;28;20021;-90
2022/11/04 05:40:17;;;;;;;2.88;0.98;;;;;;;13.64;100.00;99484.41;5051891;28;20071;-82
2022/11/04 05:42:42;;;;;;;3.72;1.30;;;;;;;13.63;100.00;99481.97;5053110;28;20104;-89
2022/11/04 05:45:08;;;;;;;3.08;1.08;;;;;;;13.62;100.00;99473.31;5045226;28;20137;-83
2022/11/04 05:47:34;;;;;;;3.30;1.30;;;;;;;13.62;100.00;99455.00;5051918;28;20171;-86
2022/11/04 05:49:59;;;;;;;5.47;1.27;;;;;;;13.61;100.00;99453.38;5046940;28;20497;-82
2022/11/04 05:52:25;;;;;;;3.83;1.10;;;;;;;13.64;100.00;99454.81;5046427;28;20830;-82
2022/11/04 05:54:50;;;;;;;9.25;1.40;;;;;;;13.65;100.00;99464.28;5045088;28;20699;-87
2022/11/04 05:57:16;;;;;;;6.05;1.33;;;;;;;13.67;100.00;99462.28;5046505;28;20353;-83
2022/11/04 05:59:41;;;;;;;2.58;1.42;;;;;;;13.66;100.00;99456.22;5045811;28;20512;-85
2022/11/04 06:02:07;;;;;;;1.98;1.15;;;;;;;13.68;100.00;99466.50;5037110;28;20385;-85
2022/11/04 06:04:32;;;;;;;3.58;1.50;;;;;;;13.69;100.00;99462.91;5047702;28;20033;-86
2022/11/04 06:06:58;;;;;;;5.43;1.70;;;;;;;13.67;100.00;99451.81;5023917;28;20090;-86
2022/11/04 06:09:41;;;;;;;6.13;1.73;;;;;;;13.67;100.00;99454.44;5045074;28;20036;-88
2022/11/04 06:12:08;;;;;;;7.03;1.60;;;;;;;13.69;100.00;99455.84;5021620;28;20028;-83
2022/11/04 06:14:34;;;;;;;4.60;2.13;;;;;;;13.70;100.00;99462.72;5047359;28;20029;-84
2022/11/04 06:16:59;;;;;;;5.53;1.85;;;;;;;13.71;100.00;99443.38;5036200;28;20028;-89
2022/11/04 06:19:25;;;;;;;5.85;1.85;;;;;;;13.74;100.00;99436.94;5046989;28;20025;-82
2022/11/04 06:21:51;;;;;;;4.32;1.17;;;;;;;13.75;100.00;99428.09;5046067;28;20069;-86
2022/11/04 06:24:16;;;;;;;5.45;1.98;;;;;;;13.74;100.00;99429.91;5048993;28;20021;-83
2022/11/04 06:26:41;;;;;;;7.82;2.08;;;;;;;13.74;100.00;99437.75;5027951;28;20025;-85
2022/11/04 06:29:08;;;;;;;4.05;1.45;;;;;;;13.78;100.00;99438.19;5050555;28;20039;-88
2022/11/04 06:31:34;;;;;;;5.55;2.00;;;;;;;13.78;100.00;99448.66;5049276;28;20084;-84
2022/11/04 06:33:59;;;;;;;4.00;1.90;;;;;;;13.78;100.00;99439.00;5048903;28;20040;-86
2022/11/04 06:36:25;;;;;;;7.70;2.58;;;;;;;13.80;100.00;99451.88;5048818;28;20040;-88
2022/11/04 06:38:51;;;;;;;6.20;2.00;;;;;;;13.84;100.00;99437.44;5051127;28;20025;-88
2022/11/04 06:41:17;;;;;;;5.28;1.95;;;;;;;13.87;100.00;99452.75;5046263;28;20365;-84
2022/11/04 06:43:42;;;;;;;7.65;1.77;;;;;;;13.92;100.00;99450.38;5048710;28;20029;-85
2022/11/04 06:46:34;;;;;;;7.03;2.75;;;;;;;13.95;100.00;99439.53;5046208;28;20025;-85
2022/11/04 06:48:59;;;;;;;4.88;1.75;;;;;;;13.98;100.00;99444.38;5009111;28;20059;-85
2022/11/04 06:51:25;;;;;;;3.63;1.65;;;;;;;14.02;100.00;99439.56;5050010;28;20013;-85
2022/11/04 06:53:51;;;;;;;8.35;2.22;;;;;;;14.03;100.00;99452.47;5050929;28;20021;-83
2022/11/04 06:56:16;;;;;;;4.95;1.75;;;;;;;14.05;100.00;99460.97;5055786;28;20027;-84
2022/11/04 06:58:42;;;;;;;6.10;2.60;;;;;;;14.05;100.00;99458.34;5036790;28;20039;-82
2022/11/04 07:01:08;;;;;;;4.82;2.40;;;;;;;14.09;100.00;99458.75;5053255;28;20029;-86
2022/11/04 07:03:34;;;;;;;5.50;2.10;;;;;;;14.12;100.00;99453.97;5050035;28;20025;-87
2022/11/04 07:06:05;;;;;;;10.93;3.05;;;;;;;14.13;100.00;99471.28;5052738;28;20037;-86
2022/11/04 07:08:30;;;;;;;5.90;2.47;;;;;;;14.18;100.00;99463.63;5054757;28;20400;-82
2022/11/04 07:10:55;;;;;;;7.97;2.60;;;;;;;14.18;100.00;99457.59;5054295;28;20033;-86
2022/11/04 07:13:21;;;;;;;7.55;2.53;;;;;;;14.16;100.00;99457.81;5052855;28;20131;-86
2022/11/04 07:15:46;;;;;;;5.95;2.13;;;;;;;14.18;100.00;99460.22;5052747;28;20017;-80
2022/11/04 07:18:12;;;;;;;7.20;2.22;;;;;;;14.19;100.00;99461.81;5034703;28;20029;-85
2022/11/04 07:20:37;;;;;;;7.00;2.17;;;;;;;14.17;100.00;99456.81;5054144;28;20023;-86
2022/11/04 07:23:03;;;;;;;9.35;3.40;;;;;;;14.18;100.00;99441.88;5046548;28;20056;-86
2022/11/04 07:25:29;;;;;;;6.75;2.70;;;;;;;14.15;100.00;99442.28;5053359;28;20314;-83
2022/11/04 07:27:54;;;;;;;7.85;3.42;;;;;;;14.17;100.00;99454.19;5052278;28;20064;-85
2022/11/04 07:30:20;;;;;;;8.15;3.20;;;;;;;14.18;100.00;99461.03;5046061;28;20073;-85
2022/11/04 07:32:46;;;;;;;6.35;2.85;;;;;;;14.18;100.00;99465.44;5050262;28;20025;-87
2022/11/04 07:35:12;;;;;;;8.43;2.78;;;;;;;14.21;100.00;99465.06;5046247;28;20032;-87
2022/11/04 07:37:37;;;;;;;10.57;3.65;;;;;;;14.22;100.00;99453.59;5047416;28;20040;-85
2022/11/04 07:40:04;;;;;;;9.65;3.78;;;;;;;14.21;100.00;99460.63;5048282;28;20025;-86
2022/11/04 07:42:30;;;;;;;13.07;3.30;;;;;;;14.19;100.00;99460.03;5050021;28;20056;-83
2022/11/04 07:44:55;;;;;;;6.88;3.63;;;;;;;14.22;100.00;99467.50;5042931;28;20068;-83
2022/11/04 07:47:21;;;;;;;12.82;3.40;;;;;;;14.24;100.00;99455.00;5042098;28;20480;-83
2022/11/04 07:49:46;;;;;;;11.15;3.65;;;;;;;14.24;100.00;99455.00;5053588;28;20551;-83
2022/11/04 07:52:12;;;;;;;8.15;3.75;;;;;;;14.26;100.00;99431.25;5054736;28;20043;-84
2022/11/04 07:54:37;;;;;;;6.25;3.45;;;;;;;14.26;100.00;99442.53;5048751;28;20063;-84
2022/11/04 07:57:03;;;;;;;16.65;4.60;;;;;;;14.27;100.00;99446.78;5042452;28;20029;-82
2022/11/04 07:59:28;;;;;;;12.18;3.45;;;;;;;14.28;100.00;99445.78;5051044;28;20029;-82
2022/11/04 08:01:53;;;;;;;13.35;3.20;;;;;;;14.31;100.00;99436.72;5051772;28;20036;-84
2022/11/04 08:04:19;;;;;;;11.27;4.22;;;;;;;14.34;100.00;99438.13;5045365;28;20067;-83
2022/11/04 08:06:44;;;;;;;11.20;4.15;;;;;;;14.37;100.00;99424.66;5030733;28;20059;-83
2022/11/04 08:09:12;;;;;;;9.35;4.38;;;;;;;14.40;100.00;99416.41;5046439;28;20037;-84
2022/11/04 08:11:41;;;;;;;8.75;5.28;;;;;;;14.47;100.00;99414.66;5055549;28;20492;-84
2022/11/04 08:14:08;;;;;;;13.05;4.30;;;;;;;14.55;100.00;99419.75;5031080;28;20025;-84
2022/11/04 08:16:34;;;;;;;17.55;4.65;;;;;;;14.67;100.00;99423.41;5050563;28;20111;-84
2022/11/04 08:19:01;;;;;;;11.50;4.25;;;;;;;14.73;100.00;99425.22;5027588;28;20068;-86
2022/11/04 08:21:28;;;;;;;14.15;4.43;;;;;;;14.79;100.00;99426.28;5045310;28;20048;-87
2022/11/04 08:23:54;;;;;;;14.18;4.90;;;;;;;14.84;100.00;99419.44;5040874;28;20087;-83
2022/11/04 08:26:22;;;;;;;17.70;4.63;;;;;;;14.86;100.00;99419.22;5047193;28;20317;-84
2022/11/04 08:28:48;;;;;;;15.07;4.10;;;;;;;14.89;100.00;99416.22;5042195;28;20035;-86
2022/11/04 08:31:18;;;;;;;14.00;3.50;;;;;;;14.87;100.00;99413.78;5048755;28;20025;-86
2022/11/04 08:33:44;;;;;;;13.25;3.95;;;;;;;14.89;100.00;99413.59;5046807;28;20021;-85
2022/11/04 08:36:14;;;;;;;16.17;4.25;;;;;;;14.91;100.00;99403.72;5026425;28;20188;-86
2022/11/04 08:38:39;;;;;;;7.78;3.63;;;;;;;14.92;100.00;99411.38;5028815;28;20017;-86
2022/11/04 08:41:08;;;;;;;14.90;3.67;;;;;;;14.94;100.00;99414.63;5044864;28;20090;-87
2022/11/04 08:43:34;;;;;;;14.85;4.45;;;;;;;14.97;100.00;99413.41;5031075;28;20469;-84
2022/11/04 08:46:01;;;;;;;11.88;3.92;;;;;;;14.99;100.00;99410.59;5048468;28;20072;-84
2022/11/04 08:48:30;;;;;;;17.17;4.38;;;;;;;15.02;100.00;99399.72;5047202;28;20025;-84
2022/11/04 08:51:00;;;;;;;14.18;4.28;;;;;;;15.05;100.00;99408.00;5030585;28;20029;-84
2022/11/04 08:53:26;;;;;;;10.15;4.65;;;;;;;15.03;100.00;99406.56;5028437;28;20140;-85
2022/11/04 08:55:52;;;;;;;16.52;4.15;;;;;;;15.02;100.00;99397.91;5044898;28;20159;-85
2022/11/04 08:58:19;;;;;;;12.90;3.70;;;;;;;15.00;100.00;99392.03;5029620;28;20093;-85
2022/11/04 09:00:50;;;;;;;12.70;3.13;;;;;;;15.01;100.00;99385.78;5048298;28;20032;-84
2022/11/04 09:03:15;;;;;;;12.07;3.42;;;;;;;15.02;100.00;99384.78;5029413;28;20025;-85
2022/11/04 09:05:46;;;;;;;9.43;3.25;;;;;;;15.00;100.00;99383.38;5047849;28;20032;-82
2022/11/04 09:08:14;;;;;;;12.00;3.38;;;;;;;15.03;100.00;99364.59;5049172;28;20053;-85
2022/11/04 09:10:41;;;;;;;13.65;3.20;;;;;;;14.99;100.00;99355.53;5054677;28;20066;-83
2022/11/04 09:13:09;;;;;;;11.38;3.40;;;;;;;14.99;100.00;99352.91;5040890;28;20333;-85
2022/11/04 09:15:34;;;;;;;9.73;2.33;;;;;;;14.99;100.00;99350.28;5059589;28;20033;-85
2022/11/04 09:18:01;;;;;;;12.70;3.08;;;;;;;14.98;100.00;99344.22;5045865;28;20036;-83
2022/11/04 09:20:26;;;;;;;9.48;2.25;;;;;;;14.97;100.00;99336.56;5034870;28;20051;-85
2022/11/04 09:22:53;;;;;;;9.40;3.65;;;;;;;14.97;100.00;99328.69;5045703;28;20404;-87
2022/11/04 09:25:18;;;;;;;12.57;2.72;;;;;;;14.99;100.00;99331.91;5028364;28;20339;-86
2022/11/04 09:27:44;;;;;;;14.20;2.17;;;;;;;14.97;100.00;99313.75;5046871;28;20397;-84
2022/11/04 09:30:10;;;;;;;11.98;3.03;;;;;;;14.97;100.00;99320.81;5029759;28;20469;-86
2022/11/04 09:32:35;;;;;;;10.98;2.88;;;;;;;14.98;100.00;99304.06;5046092;28;20059;-86
2022/11/04 09:35:01;;;;;;;10.77;2.70;;;;;;;14.99;100.00;99305.69;5047604;28;20103;-84
2022/11/04 09:37:27;;;;;;;12.52;2.80;;;;;;;14.99;100.00;99296.00;5044387;28;20041;-85
2022/11/04 09:39:52;;;;;;;11.10;2.53;;;;;;;15.04;100.00;99282.28;5028719;28;20025;-84
2022/11/04 09:42:31;;;;;;;16.25;2.72;;;;;;;15.04;100.00;99280.47;5045961;28;20170;-87
2022/11/04 09:45:00;;;;;;;10.20;3.25;;;;;;;15.05;100.00;99276.03;5042955;28;20139;-84
2022/11/04 09:47:27;;;;;;;9.45;2.75;;;;;;;15.09;100.00;99264.13;5045933;28;20115;-87
2022/11/04 09:49:57;;;;;;;6.80;2.78;;;;;;;15.14;100.00;99259.06;5028973;28;20111;-86
2022/11/04 09:52:36;;;;;;;8.05;3.15;;;;;;;15.13;100.00;99257.44;5029203;28;20102;-87
2022/11/04 09:55:19;;;;;;;9.80;2.58;;;;;;;15.14;100.00;99244.13;5044099;28;20465;-83
2022/11/04 09:57:52;;;;;;;9.77;3.05;;;;;;;15.17;100.00;99224.53;5050250;28;20032;-83
2022/11/04 10:00:19;;;;;;;15.73;3.97;;;;;;;15.13;100.00;99245.13;5051185;28;20146;-84
2022/11/04 10:03:03;;;;;;;13.05;4.05;;;;;;;15.10;100.00;99219.34;5051250;28;20048;-85
2022/11/04 10:05:55;;;;;;;13.57;2.95;;;;;;;15.08;100.00;99228.41;5032166;28;20037;-85
2022/11/04 10:08:29;;;;;;;11.50;3.33;;;;;;;15.07;100.00;99232.03;5050996;28;20063;-84
2022/11/04 10:11:29;;;;;;;11.60;3.53;;;;;;;15.08;100.00;99223.16;5033540;28;20029;-85
2022/11/04 10:14:07;;;;;;;15.23;4.22;;;;;;;15.11;100.00;99228.00;5049237;28;20044;-84
2022/11/04 10:16:33;;;;;;;11.70;3.22;;;;;;;15.09;100.00;99227.41;5050186;28;20037;-86
2022/11/04 10:19:04;;;;;;;12.52;3.67;;;;;;;15.06;100.00;99243.56;5050902;28;20029;-84
2022/11/04 10:21:45;;;;;;;13.05;3.47;;;;;;;15.06;100.00;99275.03;5050989;28;20338;-82
2022/11/04 10:24:35;;;;;;;24.77;3.97;;;;;;;15.08;100.00;99349.06;5051216;28;20045;-86
2022/11/04 10:27:14;;;;;;;9.77;3.13;;;;;;;14.94;100.00;99361.38;5047309;28;20055;-85
2022/11/04 10:29:44;;;;;;;11.85;2.55;;;;;;;14.66;100.00;99361.47;5051286;28;20029;-86
2022/11/04 10:32:25;;;;;;;9.75;2.60;;;;;;;14.52;100.00;99375.56;5050739;28;20175;-85
2022/11/04 10:34:57;;;;;;;9.30;1.92;;;;;;;14.42;100.00;99390.84;5054151;28;20560;-84
2022/11/04 10:37:25;;;;;;;6.80;1.83;;;;;;;14.31;100.00;99392.19;5037923;28;20063;-86
2022/11/04 10:39:55;;;;;;;9.40;2.85;;;;;;;14.24;100.00;99392.13;5032235;28;20029;-85
2022/11/04 10:42:21;;;;;;;18.73;4.20;;;;;;;14.22;100.00;99398.56;5060856;28;20024;-84
2022/11/04 10:44:49;;;;;;;9.20;2.38;;;;;;;14.21;100.00;99402.19;5036249;28;20138;-86
2022/11/04 10:47:25;;;;;;;11.40;3.10;;;;;;;14.17;100.00;99396.56;5054039;28;20047;-85
2022/11/04 10:49:59;;;;;;;5.95;2.58;;;;;;;14.16;100.00;99407.22;5032233;28;20029;-86
2022/11/04 10:52:25;;;;;;;14.30;4.78;;;;;;;14.12;100.00;99398.94;5035371;28;20073;-84
2022/11/04 10:54:50;;;;;;;9.27;4.10;;;;;;;14.16;100.00;99408.03;5054223;28;20025;-86
2022/11/04 10:57:20;;;;;;;11.50;4.10;;;;;;;14.18;100.00;99410.44;5037928;28;20059;-83
2022/11/04 10:59:54;;;;;;;10.57;3.38;;;;;;;14.21;100.00;99426.59;5048402;28;20028;-86
2022/11/04 11:02:35;;;;;;;10.82;4.53;;;;;;;14.21;100.00;99423.97;5031487;28;20024;-86
2022/11/04 11:05:16;;;;;;;9.07;3.63;;;;;;;14.23;100.00;99423.78;5062292;28;20032;-84
2022/11/04 11:07:43;;;;;;;11.77;4.28;;;;;;;14.28;100.00;99430.06;5049526;28;20040;-86
2022/11/04 11:10:30;;;;;;;13.45;6.47;;;;;;;14.38;100.00;99434.13;5049912;28;20029;-85
2022/11/04 11:13:24;;;;;;;11.55;4.63;;;;;;;14.40;100.00;99432.94;5036257;28;20033;-85
2022/11/04 11:16:05;;;;;;;14.45;5.47;;;;;;;14.49;100.00;99431.00;5050464;28;20036;-82
2022/11/04 11:18:30;;;;;;;11.80;4.15;;;;;;;14.62;100.00;99427.63;5049881;28;20033;-84
2022/11/04 11:21:07;;;;;;;15.23;4.68;;;;;;;14.62;100.00;99444.19;5049616;28;20028;-84
2022/11/04 11:23:35;;;;;;;11.40;3.50;;;;;;;14.60;100.00;99439.13;5048744;28;20130;-85
2022/11/04 11:26:03;;;;;;;11.15;3.72;;;;;;;14.68;100.00;99445.19;5030475;28;20106;-83
2022/11/04 11:28:29;;;;;;;14.55;3.55;;;;;;;14.60;100.00;99438.31;5042438;28;20029;-86
2022/11/04 11:30:59;;;;;;;11.00;3.45;;;;;;;14.55;100.00;99451.19;5049325;28;20033;-84
2022/11/04 11:33:31;;;;;;;9.35;3.45;;;;;;;14.54;100.00;99441.72;5030594;28;20096;-85
2022/11/04 11:36:11;;;;;;;9.43;3.58;;;;;;;14.45;100.00;99440.25;5049701;28;20041;-84
2022/11/04 11:38:38;;;;;;;8.65;3.13;;;;;;;14.44;100.00;99449.13;5068597;28;20024;-85
2022/11/04 11:41:10;;;;;;;18.55;5.03;;;;;;;14.56;100.00;99437.09;5062101;28;20060;-85
2022/11/04 11:43:41;;;;;;;8.40;4.07;;;;;;;14.59;100.00;99428.84;5072957;28;20025;-84
2022/11/04 11:46:24;;;;;;;17.75;4.90;;;;;;;14.54;100.00;99441.72;5063710;28;20039;-83
2022/11/04 11:48:52;;;;;;;10.50;4.47;;;;;;;14.63;100.00;99443.16;5049520;28;20079;-82
2022/11/04 11:51:27;;;;;;;10.45;4.60;;;;;;;14.72;100.00;99441.97;5049222;28;20113;-83
2022/11/04 11:54:14;;;;;;;12.57;4.70;;;;;;;14.81;100.00;99425.06;5057507;28;20025;-83
2022/11/04 11:56:43;;;;;;;13.95;5.55;;;;;;;14.86;100.00;99433.16;5049737;28;20032;-83
2022/11/04 11:59:21;;;;;;;10.95;4.47;;;;;;;14.91;100.00;99419.44;5059930;28;20033;-84
2022/11/04 12:02:11;;;;;;;15.93;3.35;;;;;;;14.59;100.00;99419.16;5030646;28;20024;-82